sensor_id;sensor_type;location;lat;lon;timestamp;temperature;humidity
4390;DHT22;2209;48.982;8.406;2022-12-18T00:01:14;-4.20;99.90
4390;DHT22;2209;48.982;8.406;2022-12-18T00:03:37;-4.30;99.90
4390;DHT22;2209;48.982;8.406;2022-12-18T00:05:59;-4.30;99.90
4390;DHT22;2209;48.982;8.406;2022-12-18T00:08:22;-4.20;99.90
4390;DHT22;2209;48.982;8.406;2022-12-18T00:10:45;-4.30;99.90
4390;DHT22;2209;48.982;8.406;2022-12-18T00:13:07;-4.30;99.90
4390;DHT22;2209;48.982;8.406;2022-12-18T00:15:29;-4.30;99.90
4390;DHT22;2209;48.982;8.406;2022-12-18T00:17:51;-4.30;99.90
4390;DHT22;2209;48.982;8.406;2022-12-18T00:20:13;-4.30;99.90
4390;DHT22;2209;48.982;8.406;2022-12-18T00:22:36;-4.30;99.90
4390;DHT22;2209;48.982;8.406;2022-12-18T00:24:59;-4.30;99.90
4390;DHT22;2209;48.982;8.406;2022-12-18T00:27:21;-4.30;99.90
4390;DHT22;2209;48.982;8.406;2022-12-18T00:29:43;-4.30;99.90
4390;DHT22;2209;48.982;8.406;2022-12-18T00:32:05;-4.30;99.90
4390;DHT22;2209;48.982;8.406;2022-12-18T00:34:27;-4.30;99.90
4390;DHT22;2209;48.982;8.406;2022-12-18T00:36:49;-4.30;99.90
4390;DHT22;2209;48.982;8.406;2022-12-18T00:39:11;-4.30;99.90
4390;DHT22;2209;48.982;8.406;2022-12-18T00:41:35;-4.40;99.90
4390;DHT22;2209;48.982;8.406;2022-12-18T00:44:17;-4.40;99.90
4390;DHT22;2209;48.982;8.406;2022-12-18T00:46:40;-4.40;99.90
4390;DHT22;2209;48.982;8.406;2022-12-18T00:49:02;-4.40;99.90
4390;DHT22;2209;48.982;8.406;2022-12-18T00:51:25;-4.40;99.90
4390;DHT22;2209;48.982;8.406;2022-12-18T00:53:47;-4.40;99.90
4390;DHT22;2209;48.982;8.406;2022-12-18T00:56:09;-4.40;99.90
4390;DHT22;2209;48.982;8.406;2022-12-18T00:58:35;-4.40;99.90
4390;DHT22;2209;48.982;8.406;2022-12-18T01:00:57;-4.40;99.90
4390;DHT22;2209;48.982;8.406;2022-12-18T01:03:19;-4.40;99.90
4390;DHT22;2209;48.982;8.406;2022-12-18T01:05:42;-4.40;99.90
4390;DHT22;2209;48.982;8.406;2022-12-18T01:08:04;-4.40;99.90
4390;DHT22;2209;48.982;8.406;2022-12-18T01:10:26;-4.40;99.90
4390;DHT22;2209;48.982;8.406;2022-12-18T01:12:48;-4.40;99.90
4390;DHT22;2209;48.982;8.406;2022-12-18T01:15:12;-4.40;99.90
4390;DHT22;2209;48.982;8.406;2022-12-18T01:17:35;-4.40;99.90
4390;DHT22;2209;48.982;8.406;2022-12-18T01:19:58;-4.40;99.90
4390;DHT22;2209;48.982;8.406;2022-12-18T01:22:20;-4.40;99.90
4390;DHT22;2209;48.982;8.406;2022-12-18T01:24:42;-4.40;99.90
4390;DHT22;2209;48.982;8.406;2022-12-18T01:27:04;-4.40;99.90
4390;DHT22;2209;48.982;8.406;2022-12-18T01:29:27;-4.40;99.90
4390;DHT22;2209;48.982;8.406;2022-12-18T01:31:50;-4.40;99.90
4390;DHT22;2209;48.982;8.406;2022-12-18T01:34:13;-4.40;99.90
4390;DHT22;2209;48.982;8.406;2022-12-18T01:36:37;-4.40;99.90
4390;DHT22;2209;48.982;8.406;2022-12-18T01:39:00;-4.40;99.90
4390;DHT22;2209;48.982;8.406;2022-12-18T01:41:25;-4.40;99.90
4390;DHT22;2209;48.982;8.406;2022-12-18T01:43:50;-4.40;99.90
4390;DHT22;2209;48.982;8.406;2022-12-18T01:46:13;-4.40;99.90
4390;DHT22;2209;48.982;8.406;2022-12-18T01:48:37;-4.50;99.90
4390;DHT22;2209;48.982;8.406;2022-12-18T01:51:01;-4.50;99.90
4390;DHT22;2209;48.982;8.406;2022-12-18T01:53:23;-4.50;99.90
4390;DHT22;2209;48.982;8.406;2022-12-18T01:55:51;-4.50;99.90
4390;DHT22;2209;48.982;8.406;2022-12-18T01:58:15;-4.50;99.90
4390;DHT22;2209;48.982;8.406;2022-12-18T02:00:38;-4.50;99.90
4390;DHT22;2209;48.982;8.406;2022-12-18T02:03:00;-4.50;99.90
4390;DHT22;2209;48.982;8.406;2022-12-18T02:05:30;-4.60;99.90
4390;DHT22;2209;48.982;8.406;2022-12-18T02:08:03;-4.60;99.90
4390;DHT22;2209;48.982;8.406;2022-12-18T02:10:35;-4.60;99.90
4390;DHT22;2209;48.982;8.406;2022-12-18T02:13:08;-4.50;99.90
4390;DHT22;2209;48.982;8.406;2022-12-18T02:15:38;-4.60;99.90
4390;DHT22;2209;48.982;8.406;2022-12-18T02:18:06;-4.60;99.90
4390;DHT22;2209;48.982;8.406;2022-12-18T02:20:35;-4.60;99.90
4390;DHT22;2209;48.982;8.406;2022-12-18T02:23:06;-4.60;99.90
4390;DHT22;2209;48.982;8.406;2022-12-18T02:25:40;-4.60;99.90
4390;DHT22;2209;48.982;8.406;2022-12-18T02:28:07;-4.60;99.90
4390;DHT22;2209;48.982;8.406;2022-12-18T02:30:32;-4.60;99.90
4390;DHT22;2209;48.982;8.406;2022-12-18T02:32:56;-4.60;99.90
4390;DHT22;2209;48.982;8.406;2022-12-18T02:35:22;-4.60;99.90
4390;DHT22;2209;48.982;8.406;2022-12-18T02:37:47;-4.60;99.90
4390;DHT22;2209;48.982;8.406;2022-12-18T02:40:11;-4.60;99.90
4390;DHT22;2209;48.982;8.406;2022-12-18T02:42:34;-4.60;99.90
4390;DHT22;2209;48.982;8.406;2022-12-18T02:44:57;-4.60;99.90
4390;DHT22;2209;48.982;8.406;2022-12-18T02:47:22;-4.60;99.90
4390;DHT22;2209;48.982;8.406;2022-12-18T02:49:52;-4.60;99.90
4390;DHT22;2209;48.982;8.406;2022-12-18T02:52:20;-4.60;99.90
4390;DHT22;2209;48.982;8.406;2022-12-18T02:54:52;-4.60;99.90
4390;DHT22;2209;48.982;8.406;2022-12-18T02:57:20;-4.70;99.90
4390;DHT22;2209;48.982;8.406;2022-12-18T02:59:49;-4.60;99.90
4390;DHT22;2209;48.982;8.406;2022-12-18T03:02:21;-4.60;99.90
4390;DHT22;2209;48.982;8.406;2022-12-18T03:04:48;-4.60;99.90
4390;DHT22;2209;48.982;8.406;2022-12-18T03:07:18;-4.60;99.90
4390;DHT22;2209;48.982;8.406;2022-12-18T03:09:45;-4.60;99.90
4390;DHT22;2209;48.982;8.406;2022-12-18T03:12:12;-4.60;99.90
4390;DHT22;2209;48.982;8.406;2022-12-18T03:14:45;-4.60;99.90
4390;DHT22;2209;48.982;8.406;2022-12-18T03:17:17;-4.60;99.90
4390;DHT22;2209;48.982;8.406;2022-12-18T03:19:41;-4.60;99.90
4390;DHT22;2209;48.982;8.406;2022-12-18T03:22:06;-4.70;99.90
4390;DHT22;2209;48.982;8.406;2022-12-18T03:24:31;-4.70;99.90
4390;DHT22;2209;48.982;8.406;2022-12-18T03:27:00;-4.70;99.90
4390;DHT22;2209;48.982;8.406;2022-12-18T03:29:26;-4.70;99.90
4390;DHT22;2209;48.982;8.406;2022-12-18T03:31:53;-4.80;99.90
4390;DHT22;2209;48.982;8.406;2022-12-18T03:34:21;-4.70;99.90
4390;DHT22;2209;48.982;8.406;2022-12-18T03:36:45;-4.80;99.90
4390;DHT22;2209;48.982;8.406;2022-12-18T03:39:07;-4.80;99.90
4390;DHT22;2209;48.982;8.406;2022-12-18T03:41:32;-4.80;99.90
4390;DHT22;2209;48.982;8.406;2022-12-18T03:44:00;-4.80;99.90
4390;DHT22;2209;48.982;8.406;2022-12-18T03:46:28;-4.80;99.90
4390;DHT22;2209;48.982;8.406;2022-12-18T03:48:59;-4.80;99.90
4390;DHT22;2209;48.982;8.406;2022-12-18T03:51:26;-4.80;99.90
4390;DHT22;2209;48.982;8.406;2022-12-18T03:53:53;-4.80;99.90
4390;DHT22;2209;48.982;8.406;2022-12-18T03:56:16;-4.80;99.90
4390;DHT22;2209;48.982;8.406;2022-12-18T03:58:41;-4.80;99.90
4390;DHT22;2209;48.982;8.406;2022-12-18T04:01:09;-4.80;99.90
4390;DHT22;2209;48.982;8.406;2022-12-18T04:03:34;-4.80;99.90
4390;DHT22;2209;48.982;8.406;2022-12-18T04:05:58;-4.80;99.90
4390;DHT22;2209;48.982;8.406;2022-12-18T04:08:23;-4.80;99.90
4390;DHT22;2209;48.982;8.406;2022-12-18T04:10:46;-4.80;99.90
4390;DHT22;2209;48.982;8.406;2022-12-18T04:13:09;-4.80;99.90
4390;DHT22;2209;48.982;8.406;2022-12-18T04:15:34;-4.80;99.90
4390;DHT22;2209;48.982;8.406;2022-12-18T04:17:56;-4.80;99.90
4390;DHT22;2209;48.982;8.406;2022-12-18T04:20:18;-4.80;99.90
4390;DHT22;2209;48.982;8.406;2022-12-18T04:22:41;-4.80;99.90
4390;DHT22;2209;48.982;8.406;2022-12-18T04:25:05;-4.80;99.90
4390;DHT22;2209;48.982;8.406;2022-12-18T04:27:27;-4.80;99.90
4390;DHT22;2209;48.982;8.406;2022-12-18T04:29:50;-4.80;99.90
4390;DHT22;2209;48.982;8.406;2022-12-18T04:32:12;-4.70;99.90
4390;DHT22;2209;48.982;8.406;2022-12-18T04:34:34;-4.70;99.90
4390;DHT22;2209;48.982;8.406;2022-12-18T04:36:56;-4.80;99.90
4390;DHT22;2209;48.982;8.406;2022-12-18T04:39:18;-4.80;99.90
4390;DHT22;2209;48.982;8.406;2022-12-18T04:41:41;-4.70;99.90
4390;DHT22;2209;48.982;8.406;2022-12-18T04:44:04;-4.70;99.90
4390;DHT22;2209;48.982;8.406;2022-12-18T04:46:26;-4.70;99.90
4390;DHT22;2209;48.982;8.406;2022-12-18T04:48:48;-4.80;99.90
4390;DHT22;2209;48.982;8.406;2022-12-18T04:51:10;-4.80;99.90
4390;DHT22;2209;48.982;8.406;2022-12-18T04:53:32;-4.70;99.90
4390;DHT22;2209;48.982;8.406;2022-12-18T04:56:03;-4.70;99.90
4390;DHT22;2209;48.982;8.406;2022-12-18T04:58:27;-4.70;99.90
4390;DHT22;2209;48.982;8.406;2022-12-18T05:00:49;-4.70;99.90
4390;DHT22;2209;48.982;8.406;2022-12-18T05:03:11;-4.80;99.90
4390;DHT22;2209;48.982;8.406;2022-12-18T05:05:34;-4.80;99.90
4390;DHT22;2209;48.982;8.406;2022-12-18T05:07:56;-4.80;99.90
4390;DHT22;2209;48.982;8.406;2022-12-18T05:10:18;-4.80;99.90
4390;DHT22;2209;48.982;8.406;2022-12-18T05:12:41;-4.80;99.90
4390;DHT22;2209;48.982;8.406;2022-12-18T05:15:18;-4.80;99.90
4390;DHT22;2209;48.982;8.406;2022-12-18T05:17:40;-4.80;99.90
4390;DHT22;2209;48.982;8.406;2022-12-18T05:20:02;-4.80;99.90
4390;DHT22;2209;48.982;8.406;2022-12-18T05:22:24;-4.80;99.90
4390;DHT22;2209;48.982;8.406;2022-12-18T05:24:46;-4.80;99.90
4390;DHT22;2209;48.982;8.406;2022-12-18T05:27:08;-4.80;99.90
4390;DHT22;2209;48.982;8.406;2022-12-18T05:29:31;-4.70;99.90
4390;DHT22;2209;48.982;8.406;2022-12-18T05:31:54;-4.70;99.90
4390;DHT22;2209;48.982;8.406;2022-12-18T05:34:17;-4.70;99.90
4390;DHT22;2209;48.982;8.406;2022-12-18T05:36:39;-4.70;99.90
4390;DHT22;2209;48.982;8.406;2022-12-18T05:39:01;-4.70;99.90
4390;DHT22;2209;48.982;8.406;2022-12-18T05:41:23;-4.70;99.90
4390;DHT22;2209;48.982;8.406;2022-12-18T05:43:45;-4.70;99.90
4390;DHT22;2209;48.982;8.406;2022-12-18T05:46:11;-4.70;99.90
4390;DHT22;2209;48.982;8.406;2022-12-18T05:48:34;-4.70;99.90
4390;DHT22;2209;48.982;8.406;2022-12-18T05:51:03;-4.70;99.90
4390;DHT22;2209;48.982;8.406;2022-12-18T05:53:25;-4.70;99.90
4390;DHT22;2209;48.982;8.406;2022-12-18T05:55:48;-4.70;99.90
4390;DHT22;2209;48.982;8.406;2022-12-18T05:58:11;-4.70;99.90
4390;DHT22;2209;48.982;8.406;2022-12-18T06:00:35;-4.70;99.90
4390;DHT22;2209;48.982;8.406;2022-12-18T06:03:00;-4.70;99.90
4390;DHT22;2209;48.982;8.406;2022-12-18T06:05:24;-4.70;99.90
4390;DHT22;2209;48.982;8.406;2022-12-18T06:07:46;-4.70;99.90
4390;DHT22;2209;48.982;8.406;2022-12-18T06:10:08;-4.70;99.90
4390;DHT22;2209;48.982;8.406;2022-12-18T06:12:30;-4.60;99.90
4390;DHT22;2209;48.982;8.406;2022-12-18T06:14:54;-4.70;99.90
4390;DHT22;2209;48.982;8.406;2022-12-18T06:17:16;-4.70;99.90
4390;DHT22;2209;48.982;8.406;2022-12-18T06:19:38;-4.70;99.90
4390;DHT22;2209;48.982;8.406;2022-12-18T06:22:01;-4.60;99.90
4390;DHT22;2209;48.982;8.406;2022-12-18T06:24:23;-4.70;99.90
4390;DHT22;2209;48.982;8.406;2022-12-18T06:26:45;-4.70;99.90
4390;DHT22;2209;48.982;8.406;2022-12-18T06:29:07;-4.70;99.90
4390;DHT22;2209;48.982;8.406;2022-12-18T06:31:30;-4.60;99.90
4390;DHT22;2209;48.982;8.406;2022-12-18T06:33:52;-4.60;99.90
4390;DHT22;2209;48.982;8.406;2022-12-18T06:36:15;-4.60;99.90
4390;DHT22;2209;48.982;8.406;2022-12-18T06:38:42;-4.60;99.90
4390;DHT22;2209;48.982;8.406;2022-12-18T06:41:06;-4.60;99.90
4390;DHT22;2209;48.982;8.406;2022-12-18T06:43:28;-4.60;99.90
4390;DHT22;2209;48.982;8.406;2022-12-18T06:45:50;-4.60;99.90
4390;DHT22;2209;48.982;8.406;2022-12-18T06:48:13;-4.60;99.90
4390;DHT22;2209;48.982;8.406;2022-12-18T06:50:35;-4.60;99.90
4390;DHT22;2209;48.982;8.406;2022-12-18T06:52:57;-4.60;99.90
4390;DHT22;2209;48.982;8.406;2022-12-18T06:55:21;-4.60;99.90
4390;DHT22;2209;48.982;8.406;2022-12-18T06:57:43;-4.60;99.90
4390;DHT22;2209;48.982;8.406;2022-12-18T07:00:06;-4.60;99.90
4390;DHT22;2209;48.982;8.406;2022-12-18T07:02:28;-4.60;99.90
4390;DHT22;2209;48.982;8.406;2022-12-18T07:04:50;-4.60;99.90
4390;DHT22;2209;48.982;8.406;2022-12-18T07:07:12;-4.60;99.90
4390;DHT22;2209;48.982;8.406;2022-12-18T07:09:34;-4.60;99.90
4390;DHT22;2209;48.982;8.406;2022-12-18T07:11:58;-4.60;99.90
4390;DHT22;2209;48.982;8.406;2022-12-18T07:14:20;-4.60;99.90
4390;DHT22;2209;48.982;8.406;2022-12-18T07:16:42;-4.60;99.90
4390;DHT22;2209;48.982;8.406;2022-12-18T07:19:04;-4.60;99.90
4390;DHT22;2209;48.982;8.406;2022-12-18T07:21:26;-4.60;99.90
4390;DHT22;2209;48.982;8.406;2022-12-18T07:23:48;-4.60;99.90
4390;DHT22;2209;48.982;8.406;2022-12-18T07:26:12;-4.60;99.90
4390;DHT22;2209;48.982;8.406;2022-12-18T07:28:38;-4.60;99.90
4390;DHT22;2209;48.982;8.406;2022-12-18T07:31:02;-4.50;99.90
4390;DHT22;2209;48.982;8.406;2022-12-18T07:33:25;-4.50;99.90
4390;DHT22;2209;48.982;8.406;2022-12-18T07:35:47;-4.50;99.90
4390;DHT22;2209;48.982;8.406;2022-12-18T07:38:09;-4.50;99.90
4390;DHT22;2209;48.982;8.406;2022-12-18T07:40:31;-4.50;99.90
4390;DHT22;2209;48.982;8.406;2022-12-18T07:42:53;-4.50;99.90
4390;DHT22;2209;48.982;8.406;2022-12-18T07:45:17;-4.50;99.90
4390;DHT22;2209;48.982;8.406;2022-12-18T07:47:39;-4.50;99.90
4390;DHT22;2209;48.982;8.406;2022-12-18T07:50:02;-4.60;99.90
4390;DHT22;2209;48.982;8.406;2022-12-18T07:52:24;-4.50;99.90
4390;DHT22;2209;48.982;8.406;2022-12-18T07:54:46;-4.50;99.90
4390;DHT22;2209;48.982;8.406;2022-12-18T07:57:09;-4.50;99.90
4390;DHT22;2209;48.982;8.406;2022-12-18T07:59:33;-4.50;99.90
4390;DHT22;2209;48.982;8.406;2022-12-18T08:01:56;-4.50;99.90
4390;DHT22;2209;48.982;8.406;2022-12-18T08:04:19;-4.50;99.90
4390;DHT22;2209;48.982;8.406;2022-12-18T08:06:41;-4.50;99.90
4390;DHT22;2209;48.982;8.406;2022-12-18T08:09:03;-4.50;99.90
4390;DHT22;2209;48.982;8.406;2022-12-18T08:11:27;-4.60;99.90
4390;DHT22;2209;48.982;8.406;2022-12-18T08:13:50;-4.60;99.90
4390;DHT22;2209;48.982;8.406;2022-12-18T08:16:12;-4.60;99.90
4390;DHT22;2209;48.982;8.406;2022-12-18T08:18:36;-4.70;99.90
4390;DHT22;2209;48.982;8.406;2022-12-18T08:21:07;-4.70;99.90
4390;DHT22;2209;48.982;8.406;2022-12-18T08:23:29;-4.60;99.90
4390;DHT22;2209;48.982;8.406;2022-12-18T08:25:51;-4.70;99.90
4390;DHT22;2209;48.982;8.406;2022-12-18T08:28:16;-4.70;99.90
4390;DHT22;2209;48.982;8.406;2022-12-18T08:30:39;-4.70;99.90
4390;DHT22;2209;48.982;8.406;2022-12-18T08:33:01;-4.70;99.90
4390;DHT22;2209;48.982;8.406;2022-12-18T08:35:24;-4.70;99.90
4390;DHT22;2209;48.982;8.406;2022-12-18T08:37:46;-4.60;99.90
4390;DHT22;2209;48.982;8.406;2022-12-18T08:40:09;-4.60;99.90
4390;DHT22;2209;48.982;8.406;2022-12-18T08:42:34;-4.60;99.90
4390;DHT22;2209;48.982;8.406;2022-12-18T08:45:14;-4.50;99.90
4390;DHT22;2209;48.982;8.406;2022-12-18T08:47:37;-4.50;99.90
4390;DHT22;2209;48.982;8.406;2022-12-18T08:49:59;-4.50;99.90
4390;DHT22;2209;48.982;8.406;2022-12-18T08:52:22;-4.50;99.90
4390;DHT22;2209;48.982;8.406;2022-12-18T08:54:46;-4.50;99.90
4390;DHT22;2209;48.982;8.406;2022-12-18T08:57:09;-4.50;99.90
4390;DHT22;2209;48.982;8.406;2022-12-18T08:59:31;-4.40;99.90
4390;DHT22;2209;48.982;8.406;2022-12-18T09:01:54;-4.40;99.90
4390;DHT22;2209;48.982;8.406;2022-12-18T09:04:16;-4.40;99.90
4390;DHT22;2209;48.982;8.406;2022-12-18T09:06:38;-4.30;99.90
4390;DHT22;2209;48.982;8.406;2022-12-18T09:09:02;-4.30;99.90
4390;DHT22;2209;48.982;8.406;2022-12-18T09:11:27;-4.30;99.90
4390;DHT22;2209;48.982;8.406;2022-12-18T09:13:49;-4.30;99.90
4390;DHT22;2209;48.982;8.406;2022-12-18T09:16:12;-4.30;99.90
4390;DHT22;2209;48.982;8.406;2022-12-18T09:18:37;-4.30;99.90
4390;DHT22;2209;48.982;8.406;2022-12-18T09:20:59;-4.30;99.90
4390;DHT22;2209;48.982;8.406;2022-12-18T09:23:21;-4.30;99.90
4390;DHT22;2209;48.982;8.406;2022-12-18T09:25:45;-4.30;99.90
4390;DHT22;2209;48.982;8.406;2022-12-18T09:28:10;-4.30;99.90
4390;DHT22;2209;48.982;8.406;2022-12-18T09:30:37;-4.30;99.90
4390;DHT22;2209;48.982;8.406;2022-12-18T09:33:00;-4.30;99.90
4390;DHT22;2209;48.982;8.406;2022-12-18T09:35:22;-4.30;99.90
4390;DHT22;2209;48.982;8.406;2022-12-18T09:37:44;-4.30;99.90
4390;DHT22;2209;48.982;8.406;2022-12-18T09:40:12;-4.30;99.90
4390;DHT22;2209;48.982;8.406;2022-12-18T09:42:35;-4.30;99.90
4390;DHT22;2209;48.982;8.406;2022-12-18T09:44:58;-4.30;99.90
4390;DHT22;2209;48.982;8.406;2022-12-18T09:47:24;-4.40;99.90
4390;DHT22;2209;48.982;8.406;2022-12-18T09:49:50;-4.50;99.90
4390;DHT22;2209;48.982;8.406;2022-12-18T09:52:17;-4.50;99.90
4390;DHT22;2209;48.982;8.406;2022-12-18T09:54:50;-4.50;99.90
4390;DHT22;2209;48.982;8.406;2022-12-18T09:57:14;-4.50;99.90
4390;DHT22;2209;48.982;8.406;2022-12-18T09:59:39;-4.50;99.90
4390;DHT22;2209;48.982;8.406;2022-12-18T10:02:14;-4.50;99.90
4390;DHT22;2209;48.982;8.406;2022-12-18T10:04:39;-4.60;99.90
4390;DHT22;2209;48.982;8.406;2022-12-18T10:07:07;-4.50;99.90
4390;DHT22;2209;48.982;8.406;2022-12-18T10:09:37;-4.50;99.90
4390;DHT22;2209;48.982;8.406;2022-12-18T10:12:07;-4.50;99.90
4390;DHT22;2209;48.982;8.406;2022-12-18T10:14:34;-4.40;99.90
4390;DHT22;2209;48.982;8.406;2022-12-18T10:17:05;-4.40;99.90
4390;DHT22;2209;48.982;8.406;2022-12-18T10:19:41;-4.40;99.90
4390;DHT22;2209;48.982;8.406;2022-12-18T10:22:30;-4.40;99.90
4390;DHT22;2209;48.982;8.406;2022-12-18T10:25:01;-4.40;99.90
4390;DHT22;2209;48.982;8.406;2022-12-18T10:27:26;-4.40;99.90
4390;DHT22;2209;48.982;8.406;2022-12-18T10:29:49;-4.40;99.90
4390;DHT22;2209;48.982;8.406;2022-12-18T10:32:15;-4.40;99.90
4390;DHT22;2209;48.982;8.406;2022-12-18T10:34:38;-4.40;99.90
4390;DHT22;2209;48.982;8.406;2022-12-18T10:37:01;-4.40;99.90
4390;DHT22;2209;48.982;8.406;2022-12-18T10:39:26;-4.40;99.90
4390;DHT22;2209;48.982;8.406;2022-12-18T10:41:51;-4.30;99.90
4390;DHT22;2209;48.982;8.406;2022-12-18T10:44:17;-4.30;99.90
4390;DHT22;2209;48.982;8.406;2022-12-18T10:46:40;-4.20;99.90
4390;DHT22;2209;48.982;8.406;2022-12-18T10:52:24;-4.10;99.90
4390;DHT22;2209;48.982;8.406;2022-12-18T10:54:49;-4.10;99.90
4390;DHT22;2209;48.982;8.406;2022-12-18T10:57:19;-4.10;99.90
4390;DHT22;2209;48.982;8.406;2022-12-18T10:59:53;-4.00;99.90
4390;DHT22;2209;48.982;8.406;2022-12-18T11:02:26;-4.00;99.90
4390;DHT22;2209;48.982;8.406;2022-12-18T11:04:51;-4.00;99.90
4390;DHT22;2209;48.982;8.406;2022-12-18T11:07:14;-3.90;99.90
4390;DHT22;2209;48.982;8.406;2022-12-18T11:09:40;-3.90;99.90
4390;DHT22;2209;48.982;8.406;2022-12-18T11:12:05;-3.90;99.90
4390;DHT22;2209;48.982;8.406;2022-12-18T11:14:30;-3.90;99.90
4390;DHT22;2209;48.982;8.406;2022-12-18T11:16:54;-3.90;99.90
4390;DHT22;2209;48.982;8.406;2022-12-18T11:19:30;-3.90;99.90
4390;DHT22;2209;48.982;8.406;2022-12-18T11:21:53;-3.90;99.90
4390;DHT22;2209;48.982;8.406;2022-12-18T11:24:20;-4.00;99.90
4390;DHT22;2209;48.982;8.406;2022-12-18T11:26:49;-4.10;99.90
4390;DHT22;2209;48.982;8.406;2022-12-18T11:29:17;-4.10;99.90
4390;DHT22;2209;48.982;8.406;2022-12-18T11:31:40;-4.10;99.90
4390;DHT22;2209;48.982;8.406;2022-12-18T11:34:08;-4.10;99.90
4390;DHT22;2209;48.982;8.406;2022-12-18T11:36:39;-4.10;99.90
4390;DHT22;2209;48.982;8.406;2022-12-18T11:39:09;-4.10;99.90
4390;DHT22;2209;48.982;8.406;2022-12-18T11:41:39;-4.10;99.90
4390;DHT22;2209;48.982;8.406;2022-12-18T11:44:26;-4.10;99.90
4390;DHT22;2209;48.982;8.406;2022-12-18T11:46:55;-4.10;99.90
4390;DHT22;2209;48.982;8.406;2022-12-18T11:49:22;-4.10;99.90
4390;DHT22;2209;48.982;8.406;2022-12-18T11:51:51;-4.00;99.90
4390;DHT22;2209;48.982;8.406;2022-12-18T11:54:17;-4.00;99.90
4390;DHT22;2209;48.982;8.406;2022-12-18T11:56:43;-4.00;99.90
4390;DHT22;2209;48.982;8.406;2022-12-18T11:59:15;-4.00;99.90
4390;DHT22;2209;48.982;8.406;2022-12-18T12:01:48;-3.90;99.90
4390;DHT22;2209;48.982;8.406;2022-12-18T12:04:36;-3.90;99.90
4390;DHT22;2209;48.982;8.406;2022-12-18T12:07:11;-3.80;99.90
4390;DHT22;2209;48.982;8.406;2022-12-18T12:09:43;-3.80;99.90
4390;DHT22;2209;48.982;8.406;2022-12-18T12:12:21;-3.80;99.90
4390;DHT22;2209;48.982;8.406;2022-12-18T12:14:54;-3.80;99.90
4390;DHT22;2209;48.982;8.406;2022-12-18T12:17:31;-3.70;99.90
4390;DHT22;2209;48.982;8.406;2022-12-18T12:20:02;-3.70;99.90
4390;DHT22;2209;48.982;8.406;2022-12-18T12:22:34;-3.70;99.90
4390;DHT22;2209;48.982;8.406;2022-12-18T12:27:52;-3.60;99.90
4390;DHT22;2209;48.982;8.406;2022-12-18T12:30:21;-3.60;99.90
4390;DHT22;2209;48.982;8.406;2022-12-18T12:32:59;-3.60;99.90
4390;DHT22;2209;48.982;8.406;2022-12-18T12:35:36;-3.60;99.90
4390;DHT22;2209;48.982;8.406;2022-12-18T12:38:08;-3.60;99.90
4390;DHT22;2209;48.982;8.406;2022-12-18T12:40:35;-3.60;99.90
4390;DHT22;2209;48.982;8.406;2022-12-18T12:43:02;-3.60;99.90
4390;DHT22;2209;48.982;8.406;2022-12-18T12:45:39;-3.60;99.90
4390;DHT22;2209;48.982;8.406;2022-12-18T12:48:09;-3.60;99.90
4390;DHT22;2209;48.982;8.406;2022-12-18T12:50:37;-3.60;99.90
4390;DHT22;2209;48.982;8.406;2022-12-18T12:53:04;-3.60;99.90
4390;DHT22;2209;48.982;8.406;2022-12-18T12:55:29;-3.50;99.90
4390;DHT22;2209;48.982;8.406;2022-12-18T12:57:58;-3.50;99.90
4390;DHT22;2209;48.982;8.406;2022-12-18T13:00:21;-3.50;99.90
4390;DHT22;2209;48.982;8.406;2022-12-18T13:02:48;-3.40;99.90
4390;DHT22;2209;48.982;8.406;2022-12-18T13:05:19;-3.40;99.90
4390;DHT22;2209;48.982;8.406;2022-12-18T13:07:49;-3.30;99.90
4390;DHT22;2209;48.982;8.406;2022-12-18T13:10:34;-3.20;99.90
4390;DHT22;2209;48.982;8.406;2022-12-18T13:12:57;-3.20;99.90
4390;DHT22;2209;48.982;8.406;2022-12-18T13:15:22;-3.20;99.90
4390;DHT22;2209;48.982;8.406;2022-12-18T13:17:45;-3.20;99.90
4390;DHT22;2209;48.982;8.406;2022-12-18T13:20:10;-3.20;99.90
4390;DHT22;2209;48.982;8.406;2022-12-18T13:22:36;-3.20;99.90
4390;DHT22;2209;48.982;8.406;2022-12-18T13:24:59;-3.20;99.90
4390;DHT22;2209;48.982;8.406;2022-12-18T13:27:53;-3.20;99.90
4390;DHT22;2209;48.982;8.406;2022-12-18T13:30:41;-3.20;99.90
4390;DHT22;2209;48.982;8.406;2022-12-18T13:33:36;-3.20;99.90
4390;DHT22;2209;48.982;8.406;2022-12-18T13:36:02;-3.10;99.90
4390;DHT22;2209;48.982;8.406;2022-12-18T13:38:33;-3.10;99.90
4390;DHT22;2209;48.982;8.406;2022-12-18T13:40:57;-3.10;99.90
4390;DHT22;2209;48.982;8.406;2022-12-18T13:43:24;-3.10;99.90
4390;DHT22;2209;48.982;8.406;2022-12-18T13:45:49;-3.10;99.90
4390;DHT22;2209;48.982;8.406;2022-12-18T13:48:24;-3.00;99.90
4390;DHT22;2209;48.982;8.406;2022-12-18T13:50:55;-3.00;99.90
4390;DHT22;2209;48.982;8.406;2022-12-18T13:53:21;-3.00;99.90
4390;DHT22;2209;48.982;8.406;2022-12-18T13:59:18;-2.90;99.90
4390;DHT22;2209;48.982;8.406;2022-12-18T14:01:46;-2.80;99.90
4390;DHT22;2209;48.982;8.406;2022-12-18T14:04:11;-2.80;99.90
4390;DHT22;2209;48.982;8.406;2022-12-18T14:06:34;-2.80;99.90
4390;DHT22;2209;48.982;8.406;2022-12-18T14:08:57;-2.80;99.90
4390;DHT22;2209;48.982;8.406;2022-12-18T14:11:22;-2.80;99.90
4390;DHT22;2209;48.982;8.406;2022-12-18T14:13:46;-2.80;99.90
4390;DHT22;2209;48.982;8.406;2022-12-18T14:16:14;-2.80;99.90
4390;DHT22;2209;48.982;8.406;2022-12-18T14:18:43;-2.90;99.90
4390;DHT22;2209;48.982;8.406;2022-12-18T14:21:18;-2.80;99.90
4390;DHT22;2209;48.982;8.406;2022-12-18T14:23:42;-2.90;99.90
4390;DHT22;2209;48.982;8.406;2022-12-18T14:26:21;-2.80;99.90
4390;DHT22;2209;48.982;8.406;2022-12-18T14:28:44;-2.90;99.90
4390;DHT22;2209;48.982;8.406;2022-12-18T14:31:18;-2.90;99.90
4390;DHT22;2209;48.982;8.406;2022-12-18T14:33:40;-2.90;99.90
4390;DHT22;2209;48.982;8.406;2022-12-18T14:36:04;-2.80;99.90
4390;DHT22;2209;48.982;8.406;2022-12-18T14:38:29;-2.80;99.90
4390;DHT22;2209;48.982;8.406;2022-12-18T14:40:55;-2.80;99.90
4390;DHT22;2209;48.982;8.406;2022-12-18T14:43:18;-2.80;99.90
4390;DHT22;2209;48.982;8.406;2022-12-18T14:45:41;-2.70;99.90
4390;DHT22;2209;48.982;8.406;2022-12-18T14:48:09;-2.70;99.90
4390;DHT22;2209;48.982;8.406;2022-12-18T14:50:34;-2.70;99.90
4390;DHT22;2209;48.982;8.406;2022-12-18T14:52:56;-2.70;99.90
4390;DHT22;2209;48.982;8.406;2022-12-18T14:55:20;-2.70;99.90
4390;DHT22;2209;48.982;8.406;2022-12-18T14:57:43;-2.70;99.90
4390;DHT22;2209;48.982;8.406;2022-12-18T15:00:06;-2.80;99.90
4390;DHT22;2209;48.982;8.406;2022-12-18T15:02:29;-2.80;99.90
4390;DHT22;2209;48.982;8.406;2022-12-18T15:05:02;-2.80;99.90
4390;DHT22;2209;48.982;8.406;2022-12-18T15:07:24;-2.80;99.90
4390;DHT22;2209;48.982;8.406;2022-12-18T15:10:03;-2.80;99.90
4390;DHT22;2209;48.982;8.406;2022-12-18T15:12:33;-2.90;99.90
4390;DHT22;2209;48.982;8.406;2022-12-18T15:14:55;-2.90;99.90
4390;DHT22;2209;48.982;8.406;2022-12-18T15:17:19;-2.80;99.90
4390;DHT22;2209;48.982;8.406;2022-12-18T15:19:42;-2.80;99.90
4390;DHT22;2209;48.982;8.406;2022-12-18T15:22:19;-2.70;99.90
4390;DHT22;2209;48.982;8.406;2022-12-18T15:24:42;-2.70;99.90
4390;DHT22;2209;48.982;8.406;2022-12-18T15:27:04;-2.70;99.90
4390;DHT22;2209;48.982;8.406;2022-12-18T15:29:40;-2.70;99.90
4390;DHT22;2209;48.982;8.406;2022-12-18T15:32:04;-2.80;99.90
4390;DHT22;2209;48.982;8.406;2022-12-18T15:34:27;-2.80;99.90
4390;DHT22;2209;48.982;8.406;2022-12-18T15:36:50;-2.80;99.90
4390;DHT22;2209;48.982;8.406;2022-12-18T15:39:13;-2.90;99.90
4390;DHT22;2209;48.982;8.406;2022-12-18T15:41:36;-2.90;99.90
4390;DHT22;2209;48.982;8.406;2022-12-18T15:43:58;-2.90;99.90
4390;DHT22;2209;48.982;8.406;2022-12-18T15:46:21;-2.90;99.90
4390;DHT22;2209;48.982;8.406;2022-12-18T15:48:45;-2.90;99.90
4390;DHT22;2209;48.982;8.406;2022-12-18T15:51:13;-2.90;99.90
4390;DHT22;2209;48.982;8.406;2022-12-18T15:53:36;-2.90;99.90
4390;DHT22;2209;48.982;8.406;2022-12-18T15:56:01;-2.90;99.90
4390;DHT22;2209;48.982;8.406;2022-12-18T15:58:40;-2.90;99.90
4390;DHT22;2209;48.982;8.406;2022-12-18T16:01:02;-2.90;99.90